createdAt,value
2022-08-28T00:01:04.841Z,11.60
2022-08-28T00:03:32.837Z,12.95
2022-08-28T00:06:01.773Z,13.35
2022-08-28T00:08:32.176Z,13.38
2022-08-28T00:11:00.184Z,11.18
2022-08-28T00:13:27.860Z,13.55
2022-08-28T00:16:04.931Z,11.60
2022-08-28T00:18:35.879Z,9.50
2022-08-28T00:21:03.859Z,11.30
2022-08-28T00:23:42.196Z,13.27
2022-08-28T00:26:32.196Z,9.10
2022-08-28T00:28:59.515Z,10.15
2022-08-28T00:31:26.811Z,11.52
2022-08-28T00:33:56.579Z,12.40
2022-08-28T00:36:27.578Z,11.48
2022-08-28T00:38:54.714Z,10.82
2022-08-28T00:41:33.498Z,9.10
2022-08-28T00:44:17.748Z,9.88
2022-08-28T00:46:54.518Z,10.70
2022-08-28T00:49:25.559Z,12.18
2022-08-28T00:52:11.734Z,12.23
2022-08-28T00:54:59.415Z,12.90
2022-08-28T00:57:41.392Z,12.68
2022-08-28T01:00:17.337Z,13.35
2022-08-28T01:02:44.626Z,13.05
2022-08-28T01:05:14.451Z,13.35
2022-08-28T01:07:43.072Z,13.98
2022-08-28T01:10:17.242Z,12.90
2022-08-28T01:12:46.247Z,9.98
2022-08-28T01:15:17.909Z,9.20
2022-08-28T01:17:49.541Z,12.20
2022-08-28T01:20:22.194Z,13.80
2022-08-28T01:23:29.192Z,11.02
2022-08-28T01:25:58.136Z,9.75
2022-08-28T01:28:25.383Z,11.18
2022-08-28T01:30:52.702Z,12.77
2022-08-28T01:33:28.248Z,10.18
2022-08-28T01:35:59.490Z,12.43
2022-08-28T01:38:28.175Z,14.00
2022-08-28T01:40:57.974Z,11.77
2022-08-28T01:43:29.223Z,10.02
2022-08-28T01:46:02.147Z,11.45
2022-08-28T01:48:32.349Z,13.15
2022-08-28T01:51:02.526Z,13.68
2022-08-28T01:53:33.074Z,10.88
2022-08-28T01:56:04.840Z,11.05
2022-08-28T01:58:37.481Z,12.55
2022-08-28T02:01:17.186Z,13.15
2022-08-28T02:03:45.913Z,14.65
2022-08-28T02:06:15.866Z,12.10
2022-08-28T02:08:46.869Z,14.23
2022-08-28T02:11:14.138Z,11.02
2022-08-28T02:13:44.768Z,13.77
2022-08-28T02:16:12.923Z,10.30
2022-08-28T02:18:46.727Z,10.75
2022-08-28T02:21:19.007Z,12.93
2022-08-28T02:23:49.960Z,14.75
2022-08-28T02:26:17.413Z,14.23
2022-08-28T02:28:44.846Z,11.27
2022-08-28T02:31:15.219Z,12.95
2022-08-28T02:33:45.061Z,13.25
2022-08-28T02:36:21.693Z,13.38
2022-08-28T02:38:48.885Z,13.85
2022-08-28T02:41:16.845Z,11.05
2022-08-28T02:43:48.716Z,12.82
2022-08-28T02:46:17.048Z,14.60
2022-08-28T02:48:45.678Z,13.18
2022-08-28T02:51:15.227Z,13.68
2022-08-28T02:53:43.668Z,13.35
2022-08-28T02:56:10.767Z,13.63
2022-08-28T02:58:39.605Z,13.02
2022-08-28T03:01:10.214Z,12.65
2022-08-28T03:03:41.738Z,12.98
2022-08-28T03:06:14.122Z,13.20
2022-08-28T03:08:42.585Z,12.77
2022-08-28T03:11:10.723Z,13.27
2022-08-28T03:13:38.752Z,13.57
2022-08-28T03:16:11.564Z,12.63
2022-08-28T03:18:41.421Z,12.85
2022-08-28T03:21:09.213Z,13.93
2022-08-28T03:23:37.613Z,12.95
2022-08-28T03:26:14.289Z,11.98
2022-08-28T03:28:44.434Z,13.05
2022-08-28T03:31:16.376Z,12.48
2022-08-28T03:33:45.006Z,12.23
2022-08-28T03:36:15.019Z,12.43
2022-08-28T03:38:42.259Z,11.43
2022-08-28T03:41:15.203Z,12.52
2022-08-28T03:43:44.475Z,12.05
2022-08-28T03:46:19.387Z,13.35
2022-08-28T03:48:47.769Z,12.35
2022-08-28T03:51:19.252Z,11.98
2022-08-28T03:53:51.157Z,11.35
2022-08-28T03:56:24.390Z,12.55
2022-08-28T03:58:55.918Z,10.20
2022-08-28T04:01:23.400Z,10.45
2022-08-28T04:03:54.857Z,10.43
2022-08-28T04:06:23.061Z,11.25
2022-08-28T04:08:51.178Z,11.93
2022-08-28T04:11:19.227Z,12.40
2022-08-28T04:13:50.084Z,10.25
2022-08-28T04:16:25.084Z,12.35
2022-08-28T04:18:52.237Z,11.68
2022-08-28T04:21:26.245Z,12.13
2022-08-28T04:23:54.307Z,9.95
2022-08-28T04:26:25.111Z,9.57
2022-08-28T04:28:54.779Z,11.35
2022-08-28T04:31:31.700Z,11.50
2022-08-28T04:34:06.588Z,11.93
2022-08-28T04:36:34.711Z,10.65
2022-08-28T04:39:05.346Z,9.60
2022-08-28T04:41:32.623Z,10.88
2022-08-28T04:44:00.346Z,12.02
2022-08-28T04:46:31.169Z,11.65
2022-08-28T04:48:59.908Z,10.25
2022-08-28T04:51:28.489Z,10.32
2022-08-28T04:53:56.311Z,10.93
2022-08-28T04:56:24.693Z,9.23
2022-08-28T04:58:51.963Z,9.48
2022-08-28T05:01:22.133Z,10.20
2022-08-28T05:03:55.476Z,9.52
2022-08-28T05:06:23.077Z,8.63
2022-08-28T05:08:50.540Z,8.90
2022-08-28T05:11:34.624Z,9.60
2022-08-28T05:14:06.478Z,8.63
2022-08-28T05:16:40.175Z,9.85
2022-08-28T05:19:07.770Z,8.38
2022-08-28T05:21:35.216Z,8.18
2022-08-28T05:24:03.328Z,7.32
2022-08-28T05:26:30.549Z,7.93
2022-08-28T05:29:00.668Z,9.10
2022-08-28T05:31:30.814Z,8.27
2022-08-28T05:34:01.543Z,7.70
2022-08-28T05:36:32.896Z,7.47
2022-08-28T05:39:02.371Z,7.70
2022-08-28T05:41:31.383Z,7.25
2022-08-28T05:44:01.378Z,7.32
2022-08-28T05:46:29.559Z,6.82
2022-08-28T05:49:00.667Z,7.50
2022-08-28T05:51:29.615Z,7.13
2022-08-28T05:53:58.006Z,5.50
2022-08-28T05:56:30.373Z,6.50
2022-08-28T05:59:06.190Z,5.88
2022-08-28T06:01:37.298Z,6.45
2022-08-28T06:04:10.532Z,6.57
2022-08-28T06:06:42.271Z,5.85
2022-08-28T06:09:13.345Z,4.93
2022-08-28T06:11:46.440Z,5.80
2022-08-28T06:14:17.465Z,5.80
2022-08-28T06:17:00.551Z,5.63
2022-08-28T06:19:32.672Z,6.00
2022-08-28T06:22:07.038Z,6.05
2022-08-28T06:24:36.047Z,5.88
2022-08-28T06:27:06.038Z,6.05
2022-08-28T06:29:36.956Z,4.45
2022-08-28T06:32:05.124Z,6.43
2022-08-28T06:34:33.969Z,5.55
2022-08-28T06:37:04.114Z,5.05
2022-08-28T06:39:31.966Z,5.40
2022-08-28T06:42:01.734Z,5.18
2022-08-28T06:44:32.570Z,5.43
2022-08-28T06:47:00.724Z,5.60
2022-08-28T06:49:28.383Z,5.22
2022-08-28T06:51:58.832Z,3.88
2022-08-28T06:54:26.734Z,4.93
2022-08-28T06:56:57.248Z,4.90
2022-08-28T06:59:31.258Z,4.07
2022-08-28T07:01:59.030Z,4.20
2022-08-28T07:04:28.903Z,4.35
2022-08-28T07:07:03.882Z,3.75
2022-08-28T07:09:30.978Z,3.70
2022-08-28T07:11:58.507Z,3.90
2022-08-28T07:14:29.213Z,4.47
2022-08-28T07:16:57.445Z,4.80
2022-08-28T07:19:24.673Z,4.40
2022-08-28T07:21:51.993Z,4.57
2022-08-28T07:24:19.804Z,4.57
2022-08-28T07:26:48.130Z,4.47
2022-08-28T07:29:19.179Z,4.35
2022-08-28T07:31:50.550Z,4.63
2022-08-28T07:34:21.213Z,4.10
2022-08-28T07:36:52.060Z,3.90
2022-08-28T07:39:19.753Z,4.68
2022-08-28T07:41:51.497Z,4.00
2022-08-28T07:44:37.389Z,4.10
2022-08-28T07:47:09.729Z,3.53
2022-08-28T07:49:48.863Z,4.47
2022-08-28T07:52:16.520Z,4.40
2022-08-28T07:54:44.019Z,4.60
2022-08-28T07:57:29.577Z,4.70
2022-08-28T07:59:57.108Z,4.47
2022-08-28T08:02:24.567Z,3.50
2022-08-28T08:04:53.466Z,3.25
2022-08-28T08:07:20.911Z,3.92
2022-08-28T08:09:50.500Z,3.95
2022-08-28T08:12:22.193Z,4.22
2022-08-28T08:14:52.115Z,4.32
2022-08-28T08:17:22.293Z,2.92
2022-08-28T08:19:50.230Z,4.22
2022-08-28T08:22:18.637Z,3.40
2022-08-28T08:24:49.460Z,3.90
2022-08-28T08:27:16.776Z,3.42
2022-08-28T08:29:45.104Z,3.60
2022-08-28T08:32:13.039Z,3.25
2022-08-28T08:34:43.233Z,3.65
2022-08-28T08:39:42.183Z,3.63
2022-08-28T08:42:29.378Z,3.10
2022-08-28T08:45:00.520Z,3.40
2022-08-28T08:47:52.916Z,3.50
2022-08-28T08:50:26.923Z,3.10
2022-08-28T08:53:16.145Z,4.13
2022-08-28T08:55:54.423Z,3.05
2022-08-28T08:58:46.989Z,2.55
2022-08-28T09:01:39.293Z,3.30
2022-08-28T09:07:06.350Z,2.70
2022-08-28T09:09:41.981Z,2.63
2022-08-28T09:12:20.801Z,2.58
2022-08-28T09:15:06.438Z,2.92
2022-08-28T09:17:39.523Z,2.72
2022-08-28T09:20:10.059Z,2.47
2022-08-28T09:22:42.211Z,2.40
2022-08-28T09:25:15.182Z,2.55
2022-08-28T09:27:48.115Z,3.00
2022-08-28T09:30:15.906Z,2.53
2022-08-28T09:32:53.128Z,2.58
2022-08-28T09:35:33.000Z,2.30
2022-08-28T09:38:20.764Z,2.55
2022-08-28T09:41:27.879Z,2.50
2022-08-28T09:43:55.732Z,3.13
2022-08-28T09:46:29.415Z,2.50
2022-08-28T09:49:13.550Z,2.78
2022-08-28T09:51:41.642Z,2.70
2022-08-28T09:54:19.590Z,2.58
2022-08-28T09:56:47.607Z,2.90
2022-08-28T09:59:21.470Z,2.72
2022-08-28T10:02:10.665Z,2.95
2022-08-28T10:04:40.898Z,2.45
2022-08-28T10:07:19.386Z,2.65
2022-08-28T10:10:17.934Z,2.70
2022-08-28T10:13:02.619Z,3.03
2022-08-28T10:15:54.576Z,2.72
2022-08-28T10:18:39.976Z,2.83
2022-08-28T10:21:30.561Z,2.10
2022-08-28T10:24:09.960Z,2.20
2022-08-28T10:26:55.581Z,2.65
2022-08-28T10:29:38.436Z,2.15
2022-08-28T10:34:57.440Z,2.80
2022-08-28T10:37:41.785Z,2.67
2022-08-28T10:40:13.349Z,2.90
2022-08-28T10:42:51.546Z,2.60
2022-08-28T10:45:28.172Z,2.55
2022-08-28T10:48:00.378Z,2.40
2022-08-28T10:50:33.435Z,2.58
2022-08-28T10:53:06.445Z,2.85
2022-08-28T10:55:42.556Z,3.10
2022-08-28T10:58:24.350Z,2.63
2022-08-28T11:01:02.740Z,2.50
2022-08-28T11:03:38.341Z,2.85
2022-08-28T11:06:35.520Z,2.60
2022-08-28T11:09:26.653Z,2.40
2022-08-28T11:12:02.384Z,2.97
2022-08-28T11:14:39.387Z,2.80
2022-08-28T11:17:27.953Z,3.38
2022-08-28T11:20:14.013Z,2.70
2022-08-28T11:22:50.615Z,2.22
2022-08-28T11:25:35.470Z,2.80
2022-08-28T11:28:27.252Z,2.85
2022-08-28T11:31:06.987Z,2.50
2022-08-28T11:33:39.373Z,2.45
2022-08-28T11:36:23.715Z,2.45
2022-08-28T11:38:57.754Z,3.20
2022-08-28T11:41:37.187Z,2.53
2022-08-28T11:44:10.955Z,3.03
2022-08-28T11:46:41.372Z,2.47
2022-08-28T11:49:27.034Z,2.67
2022-08-28T11:52:31.863Z,3.03
2022-08-28T11:55:30.248Z,2.53
2022-08-28T12:03:10.302Z,2.92
2022-08-28T12:05:45.395Z,2.90
2022-08-28T12:08:35.881Z,3.20
2022-08-28T12:11:06.087Z,2.65
2022-08-28T12:13:52.669Z,3.00
2022-08-28T12:16:19.968Z,2.83
2022-08-28T12:18:47.054Z,3.00
2022-08-28T12:21:23.523Z,3.35
2022-08-28T12:24:16.158Z,3.20
2022-08-28T12:26:51.042Z,2.55
2022-08-28T12:29:33.066Z,2.85
2022-08-28T12:32:22.139Z,3.30
2022-08-28T12:35:07.371Z,2.58
2022-08-28T12:37:52.668Z,3.00
2022-08-28T12:40:34.918Z,2.90
2022-08-28T12:43:08.979Z,3.15
2022-08-28T12:45:53.738Z,3.25
2022-08-28T12:48:34.314Z,3.05
2022-08-28T12:51:09.634Z,2.83
2022-08-28T12:53:43.908Z,3.20
2022-08-28T12:58:44.631Z,2.47
2022-08-28T13:01:29.032Z,2.90
2022-08-28T13:04:03.497Z,2.80
2022-08-28T13:06:38.820Z,2.90
2022-08-28T13:09:25.512Z,3.50
2022-08-28T13:11:53.083Z,2.70
2022-08-28T13:14:43.464Z,3.72
2022-08-28T13:17:13.418Z,2.97
2022-08-28T13:19:41.388Z,3.08
2022-08-28T13:22:28.840Z,2.88
2022-08-28T13:25:02.898Z,2.95
2022-08-28T13:27:33.489Z,2.92
2022-08-28T13:30:08.268Z,3.20
2022-08-28T13:32:40.538Z,2.72
2022-08-28T13:35:29.747Z,3.10
2022-08-28T13:38:00.306Z,3.10
2022-08-28T13:40:59.787Z,2.97
2022-08-28T13:43:30.920Z,3.13
2022-08-28T13:46:02.738Z,2.90
2022-08-28T13:48:32.774Z,2.92
2022-08-28T13:51:09.100Z,2.85
2022-08-28T13:53:41.613Z,3.67
2022-08-28T13:56:24.656Z,2.90
2022-08-28T13:58:57.420Z,3.25
2022-08-28T14:01:49.021Z,3.05
2022-08-28T14:04:16.878Z,3.28
2022-08-28T14:06:45.103Z,2.53
2022-08-28T14:09:18.038Z,2.65
2022-08-28T14:11:47.181Z,2.30
2022-08-28T14:14:14.963Z,3.67
2022-08-28T14:16:46.225Z,2.80
2022-08-28T14:19:19.449Z,2.78
2022-08-28T14:21:47.150Z,2.55
2022-08-28T14:24:14.941Z,2.90
2022-08-28T14:26:42.155Z,2.90
2022-08-28T14:29:13.936Z,2.97
2022-08-28T14:31:51.976Z,2.75
2022-08-28T14:34:22.898Z,2.65
2022-08-28T14:36:55.173Z,2.63
2022-08-28T14:39:26.979Z,2.95
2022-08-28T14:41:55.040Z,3.30
2022-08-28T14:44:24.919Z,3.00
2022-08-28T14:46:57.259Z,2.88
2022-08-28T14:49:26.118Z,2.92
2022-08-28T14:51:55.090Z,2.72
2022-08-28T14:54:25.499Z,3.47
2022-08-28T14:59:26.623Z,2.50
2022-08-28T15:02:00.696Z,2.92
2022-08-28T15:04:37.910Z,2.05
2022-08-28T15:07:10.969Z,2.70
2022-08-28T15:09:41.136Z,2.35
2022-08-28T15:12:09.657Z,3.53
2022-08-28T15:14:37.577Z,2.80
2022-08-28T15:17:05.692Z,2.83
2022-08-28T15:19:36.284Z,2.65
2022-08-28T15:22:04.563Z,2.65
2022-08-28T15:24:34.604Z,2.85
2022-08-28T15:27:02.957Z,2.92
2022-08-28T15:29:35.355Z,3.10
2022-08-28T15:32:04.049Z,2.80
2022-08-28T15:34:36.701Z,2.28
2022-08-28T15:37:07.718Z,2.83
2022-08-28T15:39:56.805Z,3.00
2022-08-28T15:42:24.406Z,3.30
2022-08-28T15:44:51.503Z,3.03
2022-08-28T15:47:19.408Z,2.92
2022-08-28T15:50:03.049Z,3.25
2022-08-28T15:52:35.565Z,3.53
2022-08-28T15:55:02.781Z,3.05
2022-08-28T15:57:30.481Z,3.47
2022-08-28T15:59:57.871Z,2.85
2022-08-28T16:02:25.655Z,2.92
2022-08-28T16:04:56.485Z,2.60
2022-08-28T16:07:26.074Z,2.55
2022-08-28T16:09:53.912Z,2.20
2022-08-28T16:12:21.461Z,3.30
2022-08-28T16:14:50.459Z,3.70
2022-08-28T16:17:17.610Z,3.60
2022-08-28T16:19:45.594Z,3.97
2022-08-28T16:22:18.266Z,4.35
2022-08-28T16:24:49.563Z,3.80
2022-08-28T16:27:18.280Z,4.32
2022-08-28T16:29:46.599Z,3.88
2022-08-28T16:32:19.395Z,3.72
2022-08-28T16:34:47.361Z,3.58
2022-08-28T16:37:19.435Z,3.08
2022-08-28T16:39:49.427Z,3.00
2022-08-28T16:42:20.297Z,3.33
2022-08-28T16:44:55.465Z,3.80
2022-08-28T16:47:23.469Z,3.58
2022-08-28T16:49:53.240Z,3.22
2022-08-28T16:52:21.062Z,3.00
2022-08-28T16:54:52.312Z,3.35
2022-08-28T16:57:24.420Z,3.25
2022-08-28T16:59:53.647Z,3.47
2022-08-28T17:02:26.623Z,3.25
2022-08-28T17:04:56.008Z,3.28
2022-08-28T17:07:24.000Z,3.80
2022-08-28T17:09:51.480Z,4.30
2022-08-28T17:12:22.107Z,3.83
2022-08-28T17:14:52.986Z,3.88
2022-08-28T17:17:20.915Z,4.22
2022-08-28T17:19:48.212Z,4.18
2022-08-28T17:22:37.074Z,4.95
2022-08-28T17:25:08.001Z,4.32
2022-08-28T17:27:39.391Z,4.40
2022-08-28T17:30:10.220Z,4.10
2022-08-28T17:32:37.967Z,4.35
2022-08-28T17:35:06.939Z,4.95
2022-08-28T17:37:34.134Z,4.60
2022-08-28T17:40:08.274Z,5.93
2022-08-28T17:42:36.893Z,4.97
2022-08-28T17:45:06.005Z,4.43
2022-08-28T17:47:36.712Z,4.60
2022-08-28T17:52:32.806Z,4.13
2022-08-28T17:55:02.029Z,4.15
2022-08-28T17:57:30.844Z,4.60
2022-08-28T18:00:05.229Z,4.50
2022-08-28T18:02:35.340Z,4.25
2022-08-28T18:05:05.692Z,4.65
2022-08-28T18:07:33.496Z,3.97
2022-08-28T18:10:05.960Z,4.68
2022-08-28T18:12:33.765Z,4.78
2022-08-28T18:15:05.896Z,3.83
2022-08-28T18:17:33.691Z,3.92
2022-08-28T18:20:01.018Z,4.70
2022-08-28T18:22:29.956Z,4.80
2022-08-28T18:24:58.516Z,4.78
2022-08-28T18:27:27.989Z,3.42
2022-08-28T18:29:56.033Z,4.53
2022-08-28T18:32:31.806Z,3.53
2022-08-28T18:34:59.042Z,3.53
2022-08-28T18:37:26.587Z,4.65
2022-08-28T18:39:54.451Z,4.22
2022-08-28T18:42:23.706Z,4.13
2022-08-28T18:44:51.692Z,4.20
2022-08-28T18:47:18.924Z,4.57
2022-08-28T18:49:46.816Z,4.10
2022-08-28T18:52:14.039Z,4.70
2022-08-28T18:54:47.566Z,3.85
2022-08-28T18:57:20.706Z,5.68
2022-08-28T18:59:53.516Z,4.55
2022-08-28T19:02:21.732Z,4.70
2022-08-28T19:05:15.067Z,5.78
2022-08-28T19:07:42.619Z,4.93
2022-08-28T19:10:31.790Z,5.15
2022-08-28T19:13:01.975Z,5.45
2022-08-28T19:15:32.729Z,5.15
2022-08-28T19:18:01.583Z,6.28
2022-08-28T19:20:30.567Z,5.93
2022-08-28T19:22:58.657Z,5.15
2022-08-28T19:25:31.014Z,5.65
2022-08-28T19:28:01.453Z,4.78
2022-08-28T19:30:33.298Z,5.93
2022-08-28T19:33:04.256Z,5.32
2022-08-28T19:35:31.945Z,5.00
2022-08-28T19:38:01.727Z,4.85
2022-08-28T19:40:33.762Z,5.75
2022-08-28T19:43:02.251Z,5.47
2022-08-28T19:45:32.725Z,5.13
2022-08-28T19:48:03.542Z,4.57
2022-08-28T19:50:30.751Z,4.93
2022-08-28T19:52:58.205Z,4.72
2022-08-28T19:55:34.385Z,5.75
2022-08-28T19:58:05.521Z,5.05
2022-08-28T20:00:36.675Z,4.85
2022-08-28T20:03:07.313Z,5.22
2022-08-28T20:05:43.509Z,4.68
2022-08-28T20:08:13.269Z,4.95
2022-08-28T20:10:44.611Z,5.05
2022-08-28T20:13:14.443Z,4.88
2022-08-28T20:15:46.638Z,5.00
2022-08-28T20:18:16.599Z,6.15
2022-08-28T20:20:49.692Z,5.70
2022-08-28T20:23:19.497Z,5.15
2022-08-28T20:25:52.477Z,6.65
2022-08-28T20:28:20.349Z,7.32
2022-08-28T20:30:57.128Z,5.95
2022-08-28T20:33:33.476Z,5.80
2022-08-28T20:36:08.572Z,5.88
2022-08-28T20:38:45.015Z,6.35
2022-08-28T20:41:20.685Z,6.25
2022-08-28T20:43:51.982Z,6.38
2022-08-28T20:46:20.256Z,5.95
2022-08-28T20:48:48.499Z,6.78
2022-08-28T20:51:16.248Z,6.53
2022-08-28T20:53:52.392Z,7.60
2022-08-28T20:56:25.290Z,5.57
2022-08-28T20:58:55.300Z,7.63
2022-08-28T21:01:29.114Z,7.00
2022-08-28T21:03:58.135Z,7.57
2022-08-28T21:06:29.671Z,8.75
2022-08-28T21:08:58.470Z,8.57
2022-08-28T21:11:30.315Z,7.55
2022-08-28T21:14:01.139Z,7.88
2022-08-28T21:16:31.276Z,8.07
2022-08-28T21:19:15.172Z,9.27
2022-08-28T21:21:46.880Z,6.00
2022-08-28T21:24:17.124Z,6.20
2022-08-28T21:26:46.782Z,5.93
2022-08-28T21:29:20.198Z,6.15
2022-08-28T21:31:55.515Z,5.95
2022-08-28T21:34:23.899Z,5.30
2022-08-28T21:36:55.187Z,6.30
2022-08-28T21:39:22.930Z,6.00
2022-08-28T21:41:56.158Z,6.13
2022-08-28T21:44:25.824Z,5.97
2022-08-28T21:46:53.515Z,6.75
2022-08-28T21:49:23.293Z,6.30
2022-08-28T21:51:51.325Z,6.28
2022-08-28T21:54:20.255Z,6.13
2022-08-28T21:56:48.362Z,6.93
2022-08-28T21:59:33.103Z,8.18
2022-08-28T22:02:06.236Z,6.05
2022-08-28T22:04:36.218Z,6.43
2022-08-28T22:07:04.142Z,7.40
2022-08-28T22:09:38.462Z,7.50
2022-08-28T22:12:06.567Z,6.45
2022-08-28T22:14:48.099Z,8.30
2022-08-28T22:17:17.096Z,7.07
2022-08-28T22:19:46.510Z,6.85
2022-08-28T22:22:34.228Z,6.28
2022-08-28T22:25:04.332Z,6.10
2022-08-28T22:27:37.281Z,5.85
2022-08-28T22:30:08.254Z,6.03
2022-08-28T22:32:39.285Z,6.50
2022-08-28T22:35:07.903Z,6.00
2022-08-28T22:37:40.626Z,6.88
2022-08-28T22:40:17.918Z,6.35
2022-08-28T22:42:55.067Z,7.68
2022-08-28T22:45:28.018Z,6.97
2022-08-28T22:47:56.005Z,9.07
2022-08-28T22:50:29.610Z,8.88
2022-08-28T22:52:57.594Z,7.35
2022-08-28T22:55:25.412Z,7.47
2022-08-28T22:57:54.071Z,6.90
2022-08-28T23:00:28.813Z,7.05
2022-08-28T23:02:57.256Z,6.88
2022-08-28T23:05:27.866Z,8.02
2022-08-28T23:07:56.643Z,6.72
2022-08-28T23:10:57.593Z,6.63
2022-08-28T23:13:20.841Z,7.32
2022-08-28T23:15:51.659Z,6.60
2022-08-28T23:18:19.347Z,6.55
2022-08-28T23:20:52.302Z,6.57
2022-08-28T23:23:20.253Z,7.55
2022-08-28T23:25:52.690Z,6.93
2022-08-28T23:28:20.435Z,8.75
2022-08-28T23:30:50.093Z,9.13
2022-08-28T23:33:23.597Z,8.18
2022-08-28T23:35:52.639Z,7.78
2022-08-28T23:38:20.086Z,8.15
2022-08-28T23:40:51.027Z,8.35
2022-08-28T23:43:21.035Z,9.98
2022-08-28T23:45:52.208Z,9.82
2022-08-28T23:48:29.531Z,10.30
2022-08-28T23:50:56.971Z,10.45
2022-08-28T23:53:25.017Z,8.52
2022-08-28T23:55:59.683Z,9.13
2022-08-28T23:58:31.902Z,9.80
